El'ton, Russia
Current Conditions -  °F | °C
As of 3:00 AM on Monday 24 Nov 2014 (Local Time) from URWW Reporting Station
Overcast Overcast  
Wind Chill:   Ceiling: 800
Heat Index: 23°   Visibility: 6mi
Dew Point: 21°   Wind: 20mph
Humidity: 93%   Direction: 70°ENE
Pressure: 30.45"   Gusts: 27mph
Location:  49.12°N, 46.56°E
Report Text: URWW 240000Z 07009G12MPS 9999 OVC008 M05/M06 Q1031 TEMPO 0400FZFG OVC002 RMK 11CLRD70
Loading
Personal Weather Stations






























Interactive Weather Map New forecast layout! Learn more

10-Day Weather Forecast

Advertisements
Track Severe Weather on mobile